Time;durP1;ratioP1;P1;durP2;ratioP2;P2;SDS_P1;SDS_P2;PMS_P1;PMS_P2;Temp;Humidity;BMP_temperature;BMP_pressure;BME280_temperature;BME280_humidity;BME280_pressure;Samples;Min_cycle;Max_cycle;Signal;HPM_P1;HPM_P2
2021/04/03 00:00:56;;;;;;;17.70;12.73;;;;;;;11.65;100.00;99919.97;5072289;28;20119;-71
2021/04/03 00:03:24;;;;;;;15.93;13.07;;;;;;;11.76;100.00;99931.13;5072013;28;20626;-71
2021/04/03 00:05:51;;;;;;;14.73;11.30;;;;;;;11.85;100.00;99929.50;5072032;28;20029;-71
2021/04/03 00:08:17;;;;;;;14.95;11.25;;;;;;;11.95;100.00;99930.31;5070911;28;20070;-71
2021/04/03 00:10:42;;;;;;;14.60;10.95;;;;;;;12.07;100.00;99917.81;5071890;28;20105;-71
2021/04/03 00:13:08;;;;;;;14.90;11.10;;;;;;;11.97;100.00;99888.13;5072039;28;20107;-71
2021/04/03 00:15:34;;;;;;;14.38;11.82;;;;;;;12.22;100.00;99920.81;5071917;28;20472;-71
2021/04/03 00:18:00;;;;;;;15.30;11.93;;;;;;;12.08;100.00;99902.88;5071970;28;20024;-71
2021/04/03 00:20:30;;;;;;;12.45;10.73;;;;;;;12.08;100.00;99929.16;5072368;28;20032;-71
2021/04/03 00:22:55;;;;;;;13.65;10.55;;;;;;;11.93;100.00;99913.03;5072555;28;20057;-71
2021/04/03 00:25:21;;;;;;;13.45;10.48;;;;;;;11.93;100.00;99921.72;5072115;28;20024;-70
2021/04/03 00:27:46;;;;;;;12.63;9.85;;;;;;;11.93;100.00;99926.16;5072122;28;20029;-70
2021/04/03 00:30:14;;;;;;;14.80;9.93;;;;;;;11.52;100.00;99849.41;5072008;28;20039;-71
2021/04/03 00:32:49;;;;;;;12.88;10.40;;;;;;;11.93;100.00;99916.47;5072100;28;20036;-70
2021/04/03 00:35:19;;;;;;;14.57;10.50;;;;;;;11.84;100.00;99922.56;5071827;28;20029;-71
2021/04/03 00:37:44;;;;;;;13.57;10.50;;;;;;;11.71;100.00;99890.53;5072037;28;20035;-70
2021/04/03 00:40:15;;;;;;;15.80;10.45;;;;;;;11.86;100.00;99912.78;5071888;28;20107;-71
2021/04/03 00:42:43;;;;;;;14.07;10.65;;;;;;;11.90;100.00;99921.19;5070304;28;20086;-71
2021/04/03 00:45:09;;;;;;;15.15;10.73;;;;;;;11.57;100.00;99848.00;5070727;28;20029;-71
2021/04/03 00:47:34;;;;;;;15.30;10.55;;;;;;;11.52;100.00;99836.28;5071958;28;20459;-71
2021/04/03 00:50:00;;;;;;;14.45;11.02;;;;;;;12.02;100.00;99912.19;5071905;28;20074;-70
2021/04/03 00:52:25;;;;;;;14.93;10.48;;;;;;;11.90;100.00;99911.50;5071746;28;20495;-71
2021/04/03 00:54:51;;;;;;;14.73;10.15;;;;;;;11.95;100.00;99908.47;5071927;28;20036;-71
2021/04/03 00:57:17;;;;;;;15.40;11.40;;;;;;;11.98;100.00;99905.53;5071818;28;20122;-71
2021/04/03 00:59:42;;;;;;;14.52;9.65;;;;;;;11.92;100.00;99891.19;5073040;28;20562;-71
2021/04/03 01:02:08;;;;;;;12.43;9.45;;;;;;;11.90;100.00;99880.00;5075786;28;20032;-71
2021/04/03 01:04:34;;;;;;;23.95;11.75;;;;;;;12.15;100.00;99904.81;5075364;28;20029;-71
2021/04/03 01:07:00;;;;;;;14.30;10.73;;;;;;;12.17;100.00;99904.66;5074020;28;20036;-71
2021/04/03 01:09:26;;;;;;;11.85;10.10;;;;;;;12.04;100.00;99882.16;5075112;28;20025;-71
2021/04/03 01:12:24;;;;;;;14.05;10.55;;;;;;;12.18;100.00;99906.28;5075146;28;20406;-71
2021/04/03 01:15:04;;;;;;;14.55;10.02;;;;;;;12.08;100.00;99908.94;5075173;28;20025;-71
2021/04/03 01:18:00;;;;;;;14.65;10.57;;;;;;;12.08;100.00;99910.75;5075155;28;20091;-71
2021/04/03 01:20:51;;;;;;;13.70;9.75;;;;;;;11.95;100.00;99883.03;5074882;28;20029;-71
2021/04/03 01:23:39;;;;;;;13.80;9.50;;;;;;;12.11;100.00;99907.84;5075111;28;20029;-71
2021/04/03 01:26:29;;;;;;;13.20;10.48;;;;;;;12.06;100.00;99905.66;5074953;28;20115;-71
2021/04/03 01:28:57;;;;;;;;;;;;;;;11.94;100.00;99910.25;5073892;28;20033;-71
2021/04/03 01:31:23;;;;;;;14.65;9.90;;;;;;;11.90;100.00;99903.63;5074891;28;19908;-71
2021/04/03 01:33:53;;;;;;;14.70;10.13;;;;;;;11.87;100.00;99901.28;5075002;28;20081;-71
2021/04/03 01:36:21;;;;;;;12.48;9.68;;;;;;;11.75;100.00;99878.78;5074662;28;20033;-71
2021/04/03 01:38:50;;;;;;;13.15;9.80;;;;;;;11.88;100.00;99913.47;5074843;28;20032;-70
2021/04/03 01:41:17;;;;;;;13.57;10.35;;;;;;;11.79;100.00;99888.84;5072089;28;20416;-70
2021/04/03 01:43:49;;;;;;;26.73;19.77;;;;;;;11.58;100.00;99836.56;5059174;28;20035;-71
2021/04/03 01:46:16;;;;;;;30.88;24.27;;;;;;;11.83;100.00;99884.13;5059846;28;20025;-71
2021/04/03 01:48:43;;;;;;;13.85;11.50;;;;;;;11.68;100.00;99854.91;5058642;28;20409;-71
2021/04/03 01:51:15;;;;;;;11.40;9.77;;;;;;;11.89;100.00;99880.97;5053504;28;20033;-72
2021/04/03 01:53:42;;;;;;;13.15;10.68;;;;;;;11.80;100.00;99848.50;5053886;28;20029;-70
2021/04/03 01:56:09;;;;;;;12.45;9.38;;;;;;;12.00;100.00;99883.41;5053278;28;20025;-71
2021/04/03 01:58:37;;;;;;;12.75;10.10;;;;;;;11.81;100.00;99872.94;5053587;28;20484;-71
2021/04/03 02:01:03;;;;;;;13.43;9.52;;;;;;;11.66;100.00;99856.00;5054502;28;20045;-71
2021/04/03 02:03:32;;;;;;;14.48;10.63;;;;;;;11.62;100.00;99849.41;5054301;28;20035;-71
2021/04/03 02:06:00;;;;;;;15.75;11.07;;;;;;;11.63;100.00;99893.03;5054487;28;20043;-71
2021/04/03 02:08:27;;;;;;;14.63;10.70;;;;;;;11.65;100.00;99875.38;5053907;28;20508;-71
2021/04/03 02:10:53;;;;;;;15.75;10.63;;;;;;;11.28;100.00;99823.66;5053774;28;20033;-71
2021/04/03 02:13:20;;;;;;;22.45;17.50;;;;;;;11.70;100.00;99881.00;5054079;28;20041;-69
2021/04/03 02:15:47;;;;;;;14.73;10.38;;;;;;;11.67;100.00;99873.41;5053008;28;20029;-71
2021/04/03 02:18:15;;;;;;;12.82;9.73;;;;;;;11.47;100.00;99841.94;5053868;28;20032;-71
2021/04/03 02:20:41;;;;;;;15.15;10.23;;;;;;;11.46;100.00;99844.72;5053271;28;20044;-72
2021/04/03 02:23:07;;;;;;;12.40;9.95;;;;;;;11.54;100.00;99864.06;5053782;28;20017;-71
2021/04/03 02:25:32;;;;;;;17.02;12.00;;;;;;;11.56;100.00;99863.91;5054255;28;20033;-70
2021/04/03 02:27:58;;;;;;;15.07;11.35;;;;;;;11.43;100.00;99877.31;5053237;28;20076;-72
2021/04/03 02:30:24;;;;;;;15.30;11.32;;;;;;;11.07;100.00;99816.78;5068625;28;20029;-71
2021/04/03 02:32:55;;;;;;;17.55;10.90;;;;;;;11.35;100.00;99870.16;5052168;28;20078;-72
2021/04/03 02:35:23;;;;;;;14.07;8.95;;;;;;;11.30;100.00;99880.22;5048880;28;20028;-72
2021/04/03 02:37:53;;;;;;;14.63;10.43;;;;;;;11.16;100.00;99853.59;5051670;28;20113;-71
2021/04/03 02:40:23;;;;;;;12.93;9.73;;;;;;;10.98;100.00;99830.72;5068583;28;20033;-72
2021/04/03 02:43:01;;;;;;;12.93;9.37;;;;;;;11.25;100.00;99871.13;5053020;28;20028;-71
2021/04/03 02:45:30;;;;;;;14.95;9.82;;;;;;;11.14;100.00;99861.63;5049934;28;20055;-71
2021/04/03 02:48:06;;;;;;;11.52;9.00;;;;;;;11.17;100.00;99861.34;5051502;28;20025;-71
2021/04/03 02:50:40;;;;;;;13.38;9.23;;;;;;;11.00;100.00;99838.41;5049976;28;20104;-70
2021/04/03 02:53:09;;;;;;;12.52;9.52;;;;;;;11.06;100.00;99843.94;5049215;28;20032;-70
2021/04/03 02:55:37;;;;;;;13.02;9.52;;;;;;;11.09;100.00;99837.59;5051474;28;20115;-70
2021/04/03 02:58:05;;;;;;;11.43;8.35;;;;;;;11.23;100.00;99867.81;5050402;28;20420;-70
2021/04/03 03:00:31;;;;;;;10.75;8.43;;;;;;;11.03;100.00;99848.63;5048028;28;20474;-70
2021/04/03 03:02:57;;;;;;;13.43;9.18;;;;;;;11.11;100.00;99875.84;5053866;28;20032;-70
2021/04/03 03:05:23;;;;;;;16.83;9.43;;;;;;;11.02;100.00;99878.47;5053076;28;20029;-70
2021/04/03 03:07:50;;;;;;;12.10;9.02;;;;;;;11.05;100.00;99863.28;5052989;28;20021;-70
2021/04/03 03:10:18;;;;;;;10.95;9.45;;;;;;;10.87;100.00;99842.16;5051220;28;20032;-71
2021/04/03 03:12:52;;;;;;;13.85;9.60;;;;;;;10.77;100.00;99833.47;5051014;28;20032;-71
2021/04/03 03:15:24;;;;;;;12.18;9.02;;;;;;;10.98;100.00;99866.59;5048461;28;20025;-71
2021/04/03 03:17:51;;;;;;;15.90;10.20;;;;;;;10.89;100.00;99844.63;5065218;28;20052;-70
2021/04/03 03:20:16;;;;;;;14.20;9.52;;;;;;;10.93;100.00;99851.25;5068411;28;20389;-71
2021/04/03 03:22:42;;;;;;;10.65;8.60;;;;;;;11.04;100.00;99861.63;5052321;28;20116;-71
2021/04/03 03:25:08;;;;;;;14.57;9.10;;;;;;;10.85;100.00;99825.75;5052031;28;20416;-71
2021/04/03 03:27:37;;;;;;;12.55;9.52;;;;;;;10.82;100.00;99828.63;5051000;28;20112;-71
2021/04/03 03:30:05;;;;;;;12.38;9.25;;;;;;;10.90;100.00;99837.59;5051170;28;20139;-71
2021/04/03 03:32:30;;;;;;;13.75;9.20;;;;;;;11.02;100.00;99870.59;5051070;28;20028;-71
2021/04/03 03:34:57;;;;;;;15.50;9.80;;;;;;;11.09;100.00;99863.81;5050874;28;20033;-71
2021/04/03 03:37:27;;;;;;;12.32;9.95;;;;;;;11.15;100.00;99854.59;5050969;28;20052;-71
2021/04/03 03:39:53;;;;;;;14.10;9.40;;;;;;;11.16;100.00;99857.06;5051289;28;20499;-71
2021/04/03 03:42:19;;;;;;;14.50;9.77;;;;;;;11.17;100.00;99855.25;5052534;28;20479;-71
2021/04/03 03:44:45;;;;;;;15.10;10.48;;;;;;;11.24;100.00;99864.25;5067973;28;20400;-71
2021/04/03 03:47:11;;;;;;;13.82;9.68;;;;;;;11.27;100.00;99866.56;5052732;28;20017;-71
2021/04/03 03:49:36;;;;;;;12.05;9.30;;;;;;;11.32;100.00;99870.44;5052329;28;20029;-71
2021/04/03 03:52:03;;;;;;;14.00;10.40;;;;;;;11.34;100.00;99863.25;5052397;28;20035;-71
2021/04/03 03:54:28;;;;;;;13.75;9.68;;;;;;;11.07;100.00;99840.38;5052191;28;20032;-71
2021/04/03 03:56:55;;;;;;;14.32;9.98;;;;;;;11.17;100.00;99839.50;5052425;28;20381;-71
2021/04/03 03:59:20;;;;;;;15.73;10.55;;;;;;;11.31;100.00;99867.97;5052144;28;20037;-71
2021/04/03 04:01:46;;;;;;;16.05;10.38;;;;;;;11.28;100.00;99865.63;5067652;28;20032;-71
2021/04/03 04:04:11;;;;;;;13.25;10.15;;;;;;;11.16;100.00;99843.13;5067591;28;20064;-71
2021/04/03 04:06:36;;;;;;;13.98;9.88;;;;;;;11.03;100.00;99833.72;5052112;28;20029;-71
2021/04/03 04:09:04;;;;;;;16.60;9.73;;;;;;;11.06;100.00;99838.69;5051900;28;20021;-71
2021/04/03 04:11:30;;;;;;;15.93;9.45;;;;;;;11.35;100.00;99872.78;5050897;28;20029;-71
2021/04/03 04:13:55;;;;;;;12.90;9.57;;;;;;;11.20;100.00;99844.47;5052135;28;20032;-71
2021/04/03 04:16:21;;;;;;;15.85;10.32;;;;;;;11.26;100.00;99864.91;5051949;28;20071;-71
2021/04/03 04:18:46;;;;;;;15.32;9.30;;;;;;;10.92;100.00;99814.72;5051906;28;20025;-71
2021/04/03 04:21:11;;;;;;;11.68;9.23;;;;;;;11.33;100.00;99881.75;5051597;28;20469;-71
2021/04/03 04:23:37;;;;;;;14.40;9.57;;;;;;;11.28;100.00;99876.94;5052152;28;20028;-71
2021/04/03 04:26:02;;;;;;;12.93;9.38;;;;;;;11.28;100.00;99878.72;5052201;28;20025;-71
2021/04/03 04:28:28;;;;;;;11.98;9.32;;;;;;;11.27;100.00;99877.06;5051807;28;20029;-71
2021/04/03 04:30:53;;;;;;;12.75;9.80;;;;;;;11.21;100.00;99861.91;5051727;28;20044;-71
2021/04/03 04:33:19;;;;;;;11.98;10.02;;;;;;;10.95;100.00;99815.25;5053467;28;20370;-71
2021/04/03 04:35:44;;;;;;;11.77;9.40;;;;;;;11.38;100.00;99873.47;5056172;28;20082;-71
2021/04/03 04:38:10;;;;;;;12.45;9.20;;;;;;;11.40;100.00;99876.78;5056351;28;20459;-71
2021/04/03 04:40:35;;;;;;;13.60;9.32;;;;;;;11.45;100.00;99875.41;5055498;28;20098;-72
2021/04/03 04:43:01;;;;;;;14.88;9.38;;;;;;;11.55;100.00;99880.63;5052462;28;20078;-71
2021/04/03 04:45:28;;;;;;;15.05;9.45;;;;;;;11.55;100.00;99891.13;5054026;28;20059;-73
2021/04/03 04:47:54;;;;;;;15.57;10.10;;;;;;;11.43;100.00;99868.63;5051312;28;20029;-71
2021/04/03 04:50:19;;;;;;;13.15;9.88;;;;;;;11.30;100.00;99846.13;5053891;28;20025;-72
2021/04/03 04:52:45;;;;;;;13.88;10.05;;;;;;;11.36;100.00;99873.59;5054871;28;20072;-72
2021/04/03 04:55:11;;;;;;;16.63;9.95;;;;;;;11.25;100.00;99873.75;5055249;28;20074;-71
2021/04/03 04:57:36;;;;;;;14.55;11.30;;;;;;;11.25;100.00;99871.97;5054839;28;20060;-72
2021/04/03 05:00:04;;;;;;;13.25;11.07;;;;;;;11.36;100.00;99876.22;5054965;28;20065;-71
2021/04/03 05:02:29;;;;;;;16.08;11.43;;;;;;;11.31;100.00;99873.22;5054002;28;20401;-72
2021/04/03 05:04:54;;;;;;;15.38;12.07;;;;;;;11.22;100.00;99845.19;5055286;28;20032;-71
2021/04/03 05:07:20;;;;;;;15.55;11.15;;;;;;;11.41;100.00;99884.53;5054507;28;20025;-72
2021/04/03 05:09:45;;;;;;;15.32;11.80;;;;;;;11.31;100.00;99863.53;5054857;28;20029;-71
2021/04/03 05:12:11;;;;;;;14.52;11.93;;;;;;;11.33;100.00;99858.97;5053798;28;20095;-72
2021/04/03 05:14:36;;;;;;;16.02;13.35;;;;;;;11.48;100.00;99882.16;5053470;28;20025;-72
2021/04/03 05:17:02;;;;;;;16.05;13.07;;;;;;;11.55;100.00;99893.75;5053029;28;20455;-71
2021/04/03 05:19:28;;;;;;;16.63;13.07;;;;;;;11.50;100.00;99893.31;5053855;28;20029;-71
2021/04/03 05:21:53;;;;;;;16.30;13.88;;;;;;;11.55;100.00;99896.38;5054097;28;20427;-71
2021/04/03 05:24:19;;;;;;;23.17;13.95;;;;;;;11.15;100.00;99833.59;5055064;28;20160;-71
2021/04/03 05:26:44;;;;;;;15.57;13.55;;;;;;;11.60;100.00;99899.38;5054042;28;20063;-71
2021/04/03 05:29:10;;;;;;;18.40;14.05;;;;;;;11.48;100.00;99877.75;5053277;28;20032;-71
2021/04/03 05:31:35;;;;;;;18.13;14.07;;;;;;;11.51;100.00;99877.47;5055109;28;20408;-69
2021/04/03 05:34:01;;;;;;;15.00;13.20;;;;;;;11.64;100.00;99889.44;5054646;28;20099;-69
2021/04/03 05:36:26;;;;;;;19.08;14.43;;;;;;;11.69;100.00;99892.47;5070440;28;20025;-70
2021/04/03 05:38:52;;;;;;;18.20;14.57;;;;;;;11.66;100.00;99900.63;5069029;28;20549;-69
2021/04/03 05:41:17;;;;;;;18.60;14.20;;;;;;;11.64;100.00;99892.88;5054285;28;20461;-70
2021/04/03 05:43:46;;;;;;;16.65;13.27;;;;;;;11.62;100.00;99870.41;5053322;28;20071;-69
2021/04/03 05:46:13;;;;;;;15.90;14.02;;;;;;;11.72;100.00;99892.19;5052197;28;20029;-69
2021/04/03 05:48:39;;;;;;;18.42;14.38;;;;;;;11.89;100.00;99893.28;5052856;28;20033;-69
2021/04/03 05:51:05;;;;;;;16.35;13.18;;;;;;;11.99;100.00;99888.81;5052789;28;20020;-69
2021/04/03 05:53:31;;;;;;;18.25;14.32;;;;;;;12.02;100.00;99881.50;5053895;28;20032;-69
2021/04/03 05:55:58;;;;;;;17.77;13.25;;;;;;;11.88;100.00;99839.94;5054955;28;20392;-70
2021/04/03 05:58:24;;;;;;;19.67;13.73;;;;;;;12.22;100.00;99882.25;5055037;28;20098;-69
2021/04/03 06:00:54;;;;;;;16.98;12.95;;;;;;;12.24;100.00;99885.53;5053950;28;20044;-70
2021/04/03 06:03:20;;;;;;;17.02;13.88;;;;;;;12.30;100.00;99886.75;5054647;28;20033;-70
2021/04/03 06:05:50;;;;;;;15.73;12.40;;;;;;;12.31;100.00;99875.25;5054500;28;20040;-70
2021/04/03 06:08:15;;;;;;;14.55;11.85;;;;;;;12.46;100.00;99886.13;5054780;28;20025;-70
2021/04/03 06:10:41;;;;;;;16.02;11.85;;;;;;;12.43;100.00;99882.00;5054431;28;20044;-70
2021/04/03 06:13:24;;;;;;;15.57;12.02;;;;;;;12.52;100.00;99885.53;5052942;28;20055;-70
2021/04/03 06:15:50;;;;;;;14.73;12.77;;;;;;;12.58;100.00;99887.56;5054404;28;20028;-70
2021/04/03 06:18:21;;;;;;;14.27;11.27;;;;;;;12.37;100.00;99853.66;5054201;28;20377;-70
2021/04/03 06:20:46;;;;;;;17.83;12.23;;;;;;;12.61;100.00;99878.56;5055934;28;20032;-71
2021/04/03 06:23:12;;;;;;;14.13;10.98;;;;;;;12.42;100.00;99847.94;5053981;28;20016;-71
2021/04/03 06:25:57;;;;;;;14.68;10.25;;;;;;;12.70;100.00;99888.19;5052892;28;20021;-70
2021/04/03 06:28:30;;;;;;;12.93;10.38;;;;;;;12.75;100.00;99892.00;5054186;28;20024;-71
2021/04/03 06:31:20;;;;;;;14.57;10.55;;;;;;;12.66;100.00;99861.38;5053116;28;20120;-70
2021/04/03 06:33:45;;;;;;;;;;;;;;;12.94;100.00;99896.31;5053005;28;20045;-70
2021/04/03 06:36:13;;;;;;;12.10;9.35;;;;;;;12.96;100.00;99893.56;5053921;28;19954;-68
2021/04/03 06:38:40;;;;;;;14.48;8.98;;;;;;;13.01;100.00;99901.81;5052572;28;20052;-70
2021/04/03 06:41:26;;;;;;;17.10;9.35;;;;;;;13.09;100.00;99908.94;5051893;28;20025;-71
2021/04/03 06:44:09;;;;;;;13.73;9.57;;;;;;;12.99;100.00;99873.03;5051869;28;20035;-70
2021/04/03 06:46:41;;;;;;;12.07;9.55;;;;;;;12.94;100.00;99864.75;5051775;28;20071;-71
2021/04/03 06:49:07;;;;;;;13.90;9.43;;;;;;;12.99;100.00;99869.56;5051286;28;20033;-71
2021/04/03 06:51:34;;;;;;;12.02;8.73;;;;;;;13.21;100.00;99898.03;5051244;28;20508;-70
2021/04/03 06:54:01;;;;;;;12.63;8.98;;;;;;;13.09;100.00;99861.59;5052093;28;20059;-71
2021/04/03 06:56:34;;;;;;;14.60;8.38;;;;;;;13.10;100.00;99855.38;5052038;28;20021;-70
2021/04/03 06:59:02;;;;;;;11.40;8.07;;;;;;;13.13;100.00;99863.78;5052000;28;20116;-70
2021/04/03 07:01:36;;;;;;;14.52;9.15;;;;;;;13.42;100.00;99895.13;5051129;28;20049;-70
2021/04/03 07:04:09;;;;;;;11.50;8.63;;;;;;;13.47;100.00;99892.03;5053678;28;20055;-70
2021/04/03 07:06:36;;;;;;;13.25;8.02;;;;;;;13.63;100.00;99904.47;5053365;28;20045;-70
2021/04/03 07:09:04;;;;;;;11.93;8.05;;;;;;;13.75;100.00;99895.34;5053368;28;20485;-70
2021/04/03 07:11:29;;;;;;;8.88;7.38;;;;;;;13.81;100.00;99900.00;5053270;28;20067;-70
2021/04/03 07:14:00;;;;;;;12.80;8.50;;;;;;;13.93;100.00;99904.00;5053170;28;20057;-70
2021/04/03 07:16:26;;;;;;;11.20;7.75;;;;;;;13.94;100.00;99889.88;5051886;28;20036;-70
2021/04/03 07:18:54;;;;;;;11.73;8.23;;;;;;;13.85;100.00;99879.44;5053548;28;20548;-70
2021/04/03 07:21:20;;;;;;;11.65;7.90;;;;;;;13.93;100.00;99871.56;5053175;28;20025;-70
2021/04/03 07:23:45;;;;;;;10.93;8.02;;;;;;;13.99;100.00;99870.13;5053186;28;20020;-69
2021/04/03 07:26:12;;;;;;;10.45;6.88;;;;;;;14.05;100.00;99866.88;5052868;28;20401;-69
2021/04/03 07:28:40;;;;;;;10.40;6.60;;;;;;;14.11;100.00;99866.25;5053027;28;20032;-69
2021/04/03 07:31:07;;;;;;;9.40;6.47;;;;;;;14.37;100.00;99895.97;5052760;28;20464;-69
2021/04/03 07:33:33;;;;;;;10.18;7.15;;;;;;;14.34;100.00;99877.88;5052859;28;20025;-69
2021/04/03 07:36:00;;;;;;;11.45;7.13;;;;;;;14.59;100.00;99907.00;5053258;28;20029;-69
2021/04/03 07:38:33;;;;;;;12.55;6.95;;;;;;;14.67;100.00;99904.34;5052742;28;20025;-69
2021/04/03 07:41:15;;;;;;;10.93;7.00;;;;;;;14.70;100.00;99904.03;5053045;28;20029;-69
2021/04/03 07:43:41;;;;;;;9.63;7.40;;;;;;;14.78;100.00;99906.72;5051373;28;20404;-69
2021/04/03 07:46:15;;;;;;;12.18;7.35;;;;;;;14.92;100.00;99921.09;5052643;28;20032;-69
2021/04/03 07:48:55;;;;;;;10.15;7.32;;;;;;;15.00;100.00;99923.72;5052713;28;20047;-69
2021/04/03 07:51:20;;;;;;;12.40;7.03;;;;;;;15.21;100.00;99915.34;5051683;28;20401;-69
2021/04/03 07:53:48;;;;;;;12.00;7.90;;;;;;;15.28;100.00;99905.75;5052796;28;20052;-69
2021/04/03 07:56:16;;;;;;;10.85;7.70;;;;;;;15.49;100.00;99909.72;5052397;28;20181;-69
2021/04/03 07:58:49;;;;;;;10.40;7.18;;;;;;;15.61;100.00;99907.59;5051135;28;20033;-69
2021/04/03 08:01:15;;;;;;;10.18;7.18;;;;;;;15.71;100.00;99902.97;5050768;28;20135;-69
2021/04/03 08:03:41;;;;;;;12.27;8.32;;;;;;;15.94;100.00;99874.03;5052518;28;20029;-69
2021/04/03 08:06:09;;;;;;;11.65;7.70;;;;;;;16.34;100.00;99898.69;5052338;28;20029;-69
2021/04/03 08:08:39;;;;;;;9.93;7.78;;;;;;;16.26;100.00;99889.75;5051687;28;20054;-69
2021/04/03 08:11:17;;;;;;;11.75;8.35;;;;;;;16.22;100.00;99892.94;5052183;28;20028;-69
2021/04/03 08:13:48;;;;;;;9.70;7.70;;;;;;;16.33;100.00;99897.84;5052486;28;20029;-69
2021/04/03 08:16:16;;;;;;;11.90;7.78;;;;;;;16.35;100.00;99877.34;5052545;28;20025;-69
2021/04/03 08:18:44;;;;;;;11.32;9.02;;;;;;;16.53;100.00;99869.97;5052205;28;20032;-69
2021/04/03 08:21:11;;;;;;;13.43;9.07;;;;;;;16.86;100.00;99890.16;5052051;28;20021;-69
2021/04/03 08:23:37;;;;;;;11.98;8.23;;;;;;;17.05;100.00;99895.00;5052498;28;20060;-69
2021/04/03 08:26:06;;;;;;;10.52;7.40;;;;;;;17.27;100.00;99893.31;5052186;28;20148;-69
2021/04/03 08:28:33;;;;;;;13.82;7.75;;;;;;;16.96;100.00;99862.44;5051853;28;20032;-69
2021/04/03 08:31:28;;;;;;;13.15;8.48;;;;;;;17.03;100.00;99881.09;5052171;28;20205;-68
2021/04/03 08:33:58;;;;;;;10.75;8.40;;;;;;;16.88;100.00;99862.53;5052106;28;20033;-69
2021/04/03 08:36:26;;;;;;;13.82;8.23;;;;;;;17.20;100.00;99881.78;5052005;28;20029;-68
2021/04/03 08:38:53;;;;;;;14.57;8.45;;;;;;;17.17;100.00;99867.09;5052023;28;20025;-68
2021/04/03 08:41:24;;;;;;;11.57;8.23;;;;;;;17.38;100.00;99882.31;5052195;28;20029;-69
2021/04/03 08:43:51;;;;;;;11.60;7.90;;;;;;;16.90;100.00;99812.88;5051985;28;20096;-69
2021/04/03 08:46:17;;;;;;;15.95;9.05;;;;;;;17.35;100.00;99850.06;5051864;28;20033;-69
2021/04/03 08:48:46;;;;;;;11.63;8.35;;;;;;;17.51;100.00;99887.00;5051955;28;20021;-69
2021/04/03 08:51:12;;;;;;;11.73;8.65;;;;;;;17.02;100.00;99823.88;5052189;28;20025;-68
2021/04/03 08:53:39;;;;;;;11.68;8.77;;;;;;;17.53;100.00;99870.94;5051965;28;20029;-69
2021/04/03 08:56:05;;;;;;;14.20;8.48;;;;;;;17.38;100.00;99865.59;5051937;28;20112;-68
2021/04/03 08:58:31;;;;;;;13.05;8.30;;;;;;;17.28;100.00;99830.59;5051795;28;20029;-69
2021/04/03 09:00:56;;;;;;;11.38;8.38;;;;;;;17.45;100.00;99838.22;5050191;28;20052;-68
2021/04/03 09:03:22;;;;;;;12.30;8.13;;;;;;;17.58;100.00;99832.31;5050490;28;20025;-69
2021/04/03 09:05:51;;;;;;;12.45;7.80;;;;;;;17.97;100.00;99857.75;5051793;28;20029;-68
2021/04/03 09:08:21;;;;;;;11.20;8.15;;;;;;;18.29;100.00;99826.50;5051818;28;20082;-68
2021/04/03 09:10:51;;;;;;;;;;;;;;;18.79;100.00;99859.34;5050844;28;20426;-68
2021/04/03 09:13:17;;;;;;;10.57;7.20;;;;;;;18.94;100.00;99856.66;5051695;28;20410;-69
2021/04/03 09:15:45;;;;;;;12.93;7.00;;;;;;;18.47;100.00;99869.38;5051721;28;20029;-68
2021/04/03 09:18:11;;;;;;;13.35;8.55;;;;;;;18.31;100.00;99835.13;5051660;28;20377;-68
2021/04/03 09:20:48;;;;;;;12.50;7.97;;;;;;;18.26;100.00;99835.69;5052928;28;20023;-69
2021/04/03 09:23:15;;;;;;;13.10;8.30;;;;;;;18.49;100.00;99862.03;5054030;28;20033;-69
2021/04/03 09:25:41;;;;;;;10.40;7.35;;;;;;;18.44;100.00;99837.09;5054632;28;20090;-68
2021/04/03 09:28:11;;;;;;;13.98;8.25;;;;;;;18.53;100.00;99855.38;5055055;28;20466;-74
2021/04/03 09:30:43;;;;;;;13.23;7.90;;;;;;;18.31;100.00;99824.50;5054082;28;20115;-69
2021/04/03 09:33:27;;;;;;;14.52;7.63;;;;;;;18.46;100.00;99856.28;5054096;28;20046;-69
2021/04/03 09:36:06;;;;;;;11.70;7.32;;;;;;;18.58;100.00;99845.00;5053962;28;20025;-68
2021/04/03 09:38:33;;;;;;;10.18;7.80;;;;;;;18.59;100.00;99846.66;5055418;28;20035;-68
2021/04/03 09:40:59;;;;;;;10.32;6.80;;;;;;;18.46;100.00;99845.69;5052859;28;20496;-69
2021/04/03 09:43:41;;;;;;;11.52;7.80;;;;;;;18.47;100.00;99842.03;5054780;28;20044;-69
2021/04/03 09:46:07;;;;;;;13.20;6.88;;;;;;;18.50;100.00;99839.81;5054922;28;20132;-69
2021/04/03 09:48:34;;;;;;;11.52;6.53;;;;;;;18.62;100.00;99840.97;5049499;28;20461;-69
2021/04/03 09:50:59;;;;;;;10.75;7.68;;;;;;;18.94;100.00;99846.84;5034993;28;20107;-69
2021/04/03 09:53:28;;;;;;;12.98;7.15;;;;;;;19.05;100.00;99822.41;5034405;28;20452;-68
2021/04/03 09:55:54;;;;;;;8.27;6.38;;;;;;;19.19;100.00;99812.72;5058577;28;20474;-68
2021/04/03 09:58:20;;;;;;;11.70;6.28;;;;;;;19.43;100.00;99830.06;5054137;28;20029;-70
2021/04/03 10:00:45;;;;;;;9.45;5.90;;;;;;;19.48;100.00;99819.69;5047848;28;20132;-70
2021/04/03 10:03:11;;;;;;;11.60;5.85;;;;;;;19.54;100.00;99820.72;5043307;28;20025;-69
2021/04/03 10:05:36;;;;;;;9.70;6.07;;;;;;;19.58;100.00;99820.16;5049429;28;20044;-69
2021/04/03 10:08:02;;;;;;;10.00;6.75;;;;;;;19.87;99.72;99806.84;5048951;28;20029;-70
2021/04/03 10:10:27;;;;;;;9.68;5.72;;;;;;;20.01;78.49;99804.06;5048876;28;20510;-71
2021/04/03 10:12:53;;;;;;;8.82;5.97;;;;;;;20.08;78.94;99787.28;5047952;28;20029;-69
2021/04/03 10:15:21;;;;;;;10.93;6.60;;;;;;;20.34;78.18;99794.53;5063436;28;20029;-68
2021/04/03 10:17:46;;;;;;;8.98;6.38;;;;;;;20.58;77.39;99809.97;5048484;28;20027;-69
2021/04/03 10:20:12;;;;;;;9.48;7.18;;;;;;;20.27;79.58;99773.25;5048206;28;20033;-69
2021/04/03 10:22:38;;;;;;;14.13;7.47;;;;;;;20.11;78.91;99784.22;5046811;28;20039;-71
2021/04/03 10:25:04;;;;;;;15.45;7.85;;;;;;;19.74;79.34;99733.16;5048241;28;20036;-70
2021/04/03 10:27:29;;;;;;;13.00;7.35;;;;;;;20.09;80.23;99791.63;5046563;28;20017;-70
2021/04/03 10:29:55;;;;;;;11.68;7.93;;;;;;;19.99;81.69;99795.44;5048088;28;20055;-70
2021/04/03 10:32:20;;;;;;;11.68;7.80;;;;;;;20.22;81.20;99789.81;5046022;28;20036;-69
2021/04/03 10:34:52;;;;;;;11.10;7.60;;;;;;;20.41;80.29;99792.72;5046439;28;20025;-69
2021/04/03 10:37:19;;;;;;;13.52;7.72;;;;;;;20.27;80.37;99781.22;5048073;28;20492;-69
2021/04/03 10:39:45;;;;;;;13.18;7.82;;;;;;;20.17;81.08;99772.81;5048330;28;20036;-69
2021/04/03 10:42:10;;;;;;;12.52;8.00;;;;;;;20.08;80.75;99753.56;5048569;28;20560;-68
2021/04/03 10:44:36;;;;;;;11.80;7.38;;;;;;;20.52;80.82;99769.03;5048251;28;20021;-70
2021/04/03 10:47:02;;;;;;;11.85;7.80;;;;;;;20.66;79.38;99763.75;5046641;28;20039;-70
2021/04/03 10:49:28;;;;;;;12.90;8.18;;;;;;;20.33;79.61;99763.66;5047818;28;20100;-70
2021/04/03 10:51:54;;;;;;;10.43;8.23;;;;;;;20.84;81.60;99765.78;5048469;28;20033;-69
2021/04/03 10:54:21;;;;;;;13.90;7.35;;;;;;;20.75;78.32;99763.34;5047878;28;20479;-70
2021/04/03 10:56:46;;;;;;;14.18;7.00;;;;;;;20.95;79.00;99754.50;5047546;28;20037;-69
2021/04/03 10:59:13;;;;;;;12.02;7.97;;;;;;;20.81;72.04;99729.72;5047541;28;20047;-69
2021/04/03 11:01:38;;;;;;;11.90;7.15;;;;;;;21.04;70.94;99739.97;5047861;28;20318;-69
2021/04/03 11:04:04;;;;;;;13.15;6.88;;;;;;;21.25;73.63;99730.91;5048130;28;20579;-68
2021/04/03 11:06:29;;;;;;;9.45;6.68;;;;;;;21.40;69.57;99731.53;5047919;28;20044;-68
2021/04/03 11:08:55;;;;;;;9.45;6.03;;;;;;;21.13;62.60;99700.63;5063286;28;20035;-68
2021/04/03 11:11:20;;;;;;;8.30;6.53;;;;;;;20.80;63.56;99717.44;5048093;28;20060;-68
2021/04/03 11:13:46;;;;;;;8.82;6.38;;;;;;;20.78;63.77;99718.66;5047838;28;20083;-69
2021/04/03 11:16:11;;;;;;;11.70;7.15;;;;;;;20.86;63.91;99737.13;5047707;28;20035;-71
2021/04/03 11:18:37;;;;;;;11.45;7.30;;;;;;;20.74;63.75;99719.06;5047662;28;20045;-72
2021/04/03 11:21:03;;;;;;;13.48;7.40;;;;;;;20.91;63.48;99706.16;5047816;28;20412;-68